createdAt,value
2023-04-12T00:01:52.525Z,2.58
2023-04-12T00:04:22.911Z,2.45
2023-04-12T00:06:49.861Z,2.38
2023-04-12T00:09:16.799Z,2.50
2023-04-12T00:11:43.638Z,2.70
2023-04-12T00:14:10.570Z,2.40
2023-04-12T00:16:39.020Z,3.05
2023-04-12T00:19:06.826Z,2.65
2023-04-12T00:21:33.665Z,2.53
2023-04-12T00:24:00.365Z,2.47
2023-04-12T00:26:28.124Z,2.58
2023-04-12T00:28:54.902Z,2.40
2023-04-12T00:31:21.821Z,2.53
2023-04-12T00:33:48.622Z,2.92
2023-04-12T00:36:15.953Z,2.50
2023-04-12T00:38:42.878Z,2.55
2023-04-12T00:41:10.210Z,2.45
2023-04-12T00:43:41.876Z,3.63
2023-04-12T00:46:09.755Z,2.35
2023-04-12T00:48:37.883Z,2.65
2023-04-12T00:51:07.516Z,2.67
2023-04-12T00:53:34.474Z,2.28
2023-04-12T00:56:04.306Z,3.70
2023-04-12T00:58:32.048Z,2.10
2023-04-12T01:01:01.766Z,2.47
2023-04-12T01:03:30.857Z,3.25
2023-04-12T01:06:09.805Z,2.20
2023-04-12T01:11:17.739Z,2.67
2023-04-12T01:14:03.732Z,2.60
2023-04-12T01:16:42.136Z,2.35
2023-04-12T01:19:28.687Z,3.00
2023-04-12T01:22:18.221Z,2.80
2023-04-12T01:25:04.592Z,3.35
2023-04-12T01:27:46.461Z,3.33
2023-04-12T01:30:17.070Z,3.30
2023-04-12T01:32:51.513Z,2.38
2023-04-12T01:35:21.502Z,2.63
2023-04-12T01:37:48.625Z,4.68
2023-04-12T01:40:19.113Z,2.83
2023-04-12T01:42:46.051Z,2.85
2023-04-12T01:45:12.761Z,2.53
2023-04-12T01:47:39.934Z,2.53
2023-04-12T01:50:23.863Z,2.65
2023-04-12T01:53:01.381Z,2.55
2023-04-12T01:55:31.341Z,2.90
2023-04-12T01:58:01.059Z,2.63
2023-04-12T02:00:29.058Z,2.75
2023-04-12T02:02:57.837Z,2.38
2023-04-12T02:05:25.491Z,2.67
2023-04-12T02:07:52.950Z,3.00
2023-04-12T02:10:30.004Z,3.63
2023-04-12T02:15:29.145Z,3.80
2023-04-12T02:17:56.453Z,2.85
2023-04-12T02:20:24.646Z,2.80
2023-04-12T02:22:53.932Z,2.72
2023-04-12T02:25:20.982Z,2.50
2023-04-12T02:27:48.729Z,3.00
2023-04-12T02:30:16.164Z,3.05
2023-04-12T02:32:46.296Z,3.00
2023-04-12T02:35:20.329Z,3.22
2023-04-12T02:37:53.414Z,3.83
2023-04-12T02:40:22.039Z,3.00
2023-04-12T02:42:48.994Z,2.65
2023-04-12T02:45:15.973Z,2.67
2023-04-12T02:47:43.539Z,1.95
2023-04-12T02:50:11.504Z,2.28
2023-04-12T02:52:49.175Z,2.50
2023-04-12T02:55:17.326Z,2.60
2023-04-12T02:57:48.587Z,2.60
2023-04-12T03:00:16.953Z,2.63
2023-04-12T03:02:49.946Z,2.92
2023-04-12T03:05:22.545Z,2.97
2023-04-12T03:07:50.564Z,3.03
2023-04-12T03:12:54.964Z,2.67
2023-04-12T03:15:23.610Z,3.03
2023-04-12T03:17:52.361Z,3.00
2023-04-12T03:20:24.585Z,2.63
2023-04-12T03:23:02.632Z,2.50
2023-04-12T03:25:31.764Z,2.88
2023-04-12T03:30:46.638Z,2.90
2023-04-12T03:33:16.301Z,3.35
2023-04-12T03:35:45.433Z,3.05
2023-04-12T03:38:14.206Z,3.25
2023-04-12T03:40:44.812Z,3.35
2023-04-12T03:43:11.536Z,3.78
2023-04-12T03:45:38.344Z,3.92
2023-04-12T03:48:06.340Z,3.47
2023-04-12T03:50:45.059Z,3.42
2023-04-12T03:53:19.579Z,4.70
2023-04-12T03:55:47.751Z,4.82
2023-04-12T03:58:16.393Z,4.88
2023-04-12T04:00:45.364Z,4.43
2023-04-12T04:03:15.128Z,4.07
2023-04-12T04:05:48.084Z,4.13
2023-04-12T04:08:18.097Z,3.50
2023-04-12T04:10:52.310Z,4.22
2023-04-12T04:13:22.097Z,3.33
2023-04-12T04:16:00.594Z,3.60
2023-04-12T04:18:28.531Z,3.78
2023-04-12T04:20:55.409Z,3.97
2023-04-12T04:23:23.406Z,4.28
2023-04-12T04:25:50.586Z,3.38
2023-04-12T04:28:18.332Z,4.45
2023-04-12T04:30:46.280Z,4.88
2023-04-12T04:33:16.133Z,3.83
2023-04-12T04:35:43.922Z,3.03
2023-04-12T04:38:26.365Z,3.38
2023-04-12T04:41:04.636Z,3.90
2023-04-12T04:43:46.900Z,4.25
2023-04-12T04:46:17.274Z,3.60
2023-04-12T04:48:44.166Z,3.95
2023-04-12T04:51:10.933Z,3.33
2023-04-12T04:53:38.463Z,3.90
2023-04-12T04:56:05.548Z,4.38
2023-04-12T04:58:34.980Z,3.53
2023-04-12T05:01:01.837Z,3.38
2023-04-12T05:03:31.002Z,3.58
2023-04-12T05:05:59.748Z,3.60
2023-04-12T05:08:27.766Z,3.53
2023-04-12T05:10:56.209Z,3.47
2023-04-12T05:15:52.192Z,3.60
2023-04-12T05:18:20.580Z,4.10
2023-04-12T05:20:48.511Z,4.63
2023-04-12T05:23:15.805Z,4.63
2023-04-12T05:25:48.302Z,4.45
2023-04-12T05:28:17.414Z,13.18
2023-04-12T05:30:48.111Z,8.88
2023-04-12T05:33:20.127Z,4.88
2023-04-12T05:35:48.744Z,4.50
2023-04-12T05:38:15.655Z,3.80
2023-04-12T05:40:45.561Z,4.82
2023-04-12T05:43:14.600Z,4.05
2023-04-12T05:45:41.728Z,4.30
2023-04-12T05:48:09.704Z,4.63
2023-04-12T05:50:36.623Z,4.90
2023-04-12T05:53:03.608Z,4.53
2023-04-12T05:55:32.906Z,4.05
2023-04-12T05:58:01.266Z,4.70
2023-04-12T06:00:29.032Z,4.45
2023-04-12T06:02:57.254Z,4.80
2023-04-12T06:05:24.263Z,4.40
2023-04-12T06:07:50.969Z,4.40
2023-04-12T06:10:18.528Z,4.57
2023-04-12T06:12:50.734Z,4.63
2023-04-12T06:15:21.093Z,4.60
2023-04-12T06:17:53.330Z,4.75
2023-04-12T06:20:20.272Z,3.95
2023-04-12T06:22:46.952Z,4.40
2023-04-12T06:25:16.725Z,3.67
2023-04-12T06:27:46.195Z,3.80
2023-04-12T06:30:14.880Z,3.53
2023-04-12T06:32:42.411Z,3.13
2023-04-12T06:35:09.346Z,3.33
2023-04-12T06:37:36.205Z,4.55
2023-04-12T06:40:02.977Z,4.50
2023-04-12T06:42:29.805Z,4.65
2023-04-12T06:44:56.756Z,7.15
2023-04-12T06:47:25.357Z,6.63
2023-04-12T06:49:56.289Z,5.90
2023-04-12T06:52:26.822Z,6.22
2023-04-12T06:54:56.135Z,6.75
2023-04-12T06:57:22.818Z,7.03
2023-04-12T06:59:49.520Z,7.63
2023-04-12T07:02:16.441Z,5.10
2023-04-12T07:04:43.117Z,5.80
2023-04-12T07:07:10.443Z,6.10
2023-04-12T07:09:37.187Z,6.32
2023-04-12T07:12:04.143Z,5.25
2023-04-12T07:14:30.890Z,4.60
2023-04-12T07:16:57.639Z,4.30
2023-04-12T07:19:24.343Z,5.60
2023-04-12T07:21:51.206Z,6.75
2023-04-12T07:24:17.932Z,5.93
2023-04-12T07:26:44.710Z,6.03
2023-04-12T07:29:11.450Z,7.35
2023-04-12T07:31:38.445Z,6.25
2023-04-12T07:34:05.230Z,6.63
2023-04-12T07:36:32.231Z,6.53
2023-04-12T07:38:59.183Z,7.65
2023-04-12T07:41:26.237Z,6.20
2023-04-12T07:43:52.924Z,7.78
2023-04-12T07:46:19.768Z,6.63
2023-04-12T07:48:46.910Z,6.55
2023-04-12T07:51:13.714Z,6.05
2023-04-12T07:53:42.039Z,6.07
2023-04-12T07:56:11.385Z,5.75
2023-04-12T07:58:38.125Z,5.28
2023-04-12T08:01:05.093Z,5.82
2023-04-12T08:03:31.930Z,6.47
2023-04-12T08:05:59.031Z,6.18
2023-04-12T08:08:26.021Z,6.63
2023-04-12T08:10:52.899Z,6.88
2023-04-12T08:13:20.124Z,5.47
2023-04-12T08:15:47.819Z,6.63
2023-04-12T08:18:14.867Z,6.90
2023-04-12T08:20:44.015Z,6.70
2023-04-12T08:23:13.608Z,6.50
2023-04-12T08:25:41.173Z,5.85
2023-04-12T08:28:11.027Z,5.80
2023-04-12T08:30:37.911Z,5.90
2023-04-12T08:33:05.201Z,6.25
2023-04-12T08:35:32.709Z,5.40
2023-04-12T08:38:06.715Z,5.85
2023-04-12T08:40:33.966Z,6.43
2023-04-12T08:43:07.707Z,6.53
2023-04-12T08:45:36.361Z,5.05
2023-04-12T08:48:05.778Z,4.72
2023-04-12T08:50:33.040Z,4.25
2023-04-12T08:53:00.121Z,4.22
2023-04-12T08:55:26.980Z,4.55
2023-04-12T08:57:56.452Z,3.75
2023-04-12T09:00:23.660Z,3.60
2023-04-12T09:02:50.653Z,51.63
2023-04-12T09:05:17.898Z,52.47
2023-04-12T09:07:44.740Z,13.45
2023-04-12T09:10:29.580Z,5.75
2023-04-12T09:12:56.468Z,5.15
2023-04-12T09:15:23.222Z,4.97
2023-04-12T09:18:02.541Z,5.18
2023-04-12T09:20:29.528Z,4.47
2023-04-12T09:22:56.695Z,6.72
2023-04-12T09:25:38.395Z,20.55
2023-04-12T09:28:19.625Z,8.73
2023-04-12T09:30:51.773Z,8.48
2023-04-12T09:33:23.416Z,7.78
2023-04-12T09:35:50.406Z,10.07
2023-04-12T09:38:17.344Z,6.40
2023-04-12T09:40:44.199Z,5.32
2023-04-12T09:43:11.320Z,12.05
2023-04-12T09:45:41.279Z,7.55
2023-04-12T09:48:17.646Z,5.10
2023-04-12T09:50:45.839Z,5.35
2023-04-12T09:53:19.230Z,3.65
2023-04-12T09:55:47.924Z,4.50
2023-04-12T09:58:20.786Z,4.97
2023-04-12T10:00:48.325Z,4.10
2023-04-12T10:03:15.298Z,3.78
2023-04-12T10:05:42.420Z,4.40
2023-04-12T10:08:12.906Z,3.47
2023-04-12T10:10:41.925Z,3.50
2023-04-12T10:13:11.544Z,3.03
2023-04-12T10:15:39.865Z,3.53
2023-04-12T10:18:11.374Z,3.60
2023-04-12T10:20:41.570Z,3.38
2023-04-12T10:23:10.512Z,2.90
2023-04-12T10:25:39.098Z,2.83
2023-04-12T10:28:21.871Z,3.38
2023-04-12T10:30:51.010Z,3.05
2023-04-12T10:33:20.715Z,3.20
2023-04-12T10:36:00.958Z,7.50
2023-04-12T10:38:33.621Z,10.30
2023-04-12T10:41:16.727Z,4.80
2023-04-12T10:43:47.960Z,6.38
2023-04-12T10:46:45.880Z,13.65
2023-04-12T10:49:14.230Z,3.22
2023-04-12T10:52:04.301Z,3.75
2023-04-12T10:54:35.817Z,6.13
2023-04-12T10:57:06.705Z,4.95
2023-04-12T10:59:57.600Z,4.88
2023-04-12T11:02:24.668Z,5.90
2023-04-12T11:05:23.483Z,5.22
2023-04-12T11:07:56.287Z,4.55
2023-04-12T11:10:46.983Z,5.75
2023-04-12T11:13:29.304Z,4.43
2023-04-12T11:15:57.745Z,3.80
2023-04-12T11:18:25.534Z,3.75
2023-04-12T11:20:52.956Z,3.35
2023-04-12T11:23:19.993Z,4.00
2023-04-12T11:25:53.086Z,3.97
2023-04-12T11:28:28.640Z,4.35
2023-04-12T11:30:57.697Z,3.80
2023-04-12T11:33:33.112Z,4.15
2023-04-12T11:36:03.080Z,4.10
2023-04-12T11:38:29.972Z,3.65
2023-04-12T11:40:56.785Z,4.30
2023-04-12T11:43:23.836Z,3.50
2023-04-12T11:45:59.308Z,3.33
2023-04-12T11:48:28.851Z,3.28
2023-04-12T11:51:10.375Z,3.42
2023-04-12T11:53:39.148Z,3.03
2023-04-12T11:56:06.421Z,3.40
2023-04-12T11:58:33.221Z,2.88
2023-04-12T12:01:00.369Z,4.63
2023-04-12T12:03:27.927Z,3.05
2023-04-12T12:05:55.406Z,3.00
2023-04-12T12:08:24.529Z,3.20
2023-04-12T12:11:00.483Z,4.53
2023-04-12T12:13:57.036Z,3.13
2023-04-12T12:16:33.043Z,3.10
2023-04-12T12:19:04.394Z,3.35
2023-04-12T12:21:31.684Z,3.88
2023-04-12T12:23:58.820Z,3.58
2023-04-12T12:26:28.321Z,3.25
2023-04-12T12:28:57.373Z,2.90
2023-04-12T12:31:27.489Z,2.63
2023-04-12T12:33:58.773Z,2.83
2023-04-12T12:36:33.656Z,2.80
2023-04-12T12:39:07.392Z,3.03
2023-04-12T12:41:34.597Z,3.00
2023-04-12T12:44:01.543Z,2.95
2023-04-12T12:46:40.684Z,3.10
2023-04-12T12:49:15.689Z,2.90
2023-04-12T12:51:43.053Z,3.13
2023-04-12T12:54:10.030Z,2.85
2023-04-12T12:56:37.061Z,3.08
2023-04-12T12:59:04.292Z,2.50
2023-04-12T13:01:31.080Z,2.92
2023-04-12T13:03:58.991Z,3.08
2023-04-12T13:06:27.205Z,2.83
2023-04-12T13:08:55.357Z,3.20
2023-04-12T13:11:22.175Z,2.95
2023-04-12T13:13:49.003Z,3.15
2023-04-12T13:16:15.809Z,3.05
2023-04-12T13:18:43.199Z,3.13
2023-04-12T13:21:09.923Z,3.33
2023-04-12T13:23:36.860Z,3.03
2023-04-12T13:26:03.920Z,2.50
2023-04-12T13:28:30.719Z,2.50
2023-04-12T13:30:57.411Z,2.45
2023-04-12T13:33:24.424Z,2.33
2023-04-12T13:35:51.224Z,2.10
2023-04-12T13:38:18.171Z,2.47
2023-04-12T13:40:44.919Z,2.90
2023-04-12T13:43:14.414Z,2.80
2023-04-12T13:45:41.593Z,2.53
2023-04-12T13:48:08.529Z,2.67
2023-04-12T13:50:35.512Z,2.30
2023-04-12T13:53:02.252Z,2.40
2023-04-12T13:55:29.032Z,2.38
2023-04-12T13:57:55.959Z,2.92
2023-04-12T14:00:23.226Z,2.38
2023-04-12T14:02:50.114Z,2.20
2023-04-12T14:05:17.013Z,2.03
2023-04-12T14:07:44.317Z,2.10
2023-04-12T14:10:11.152Z,2.03
2023-04-12T14:12:37.870Z,2.10
2023-04-12T14:15:05.932Z,2.10
2023-04-12T14:17:33.067Z,2.17
2023-04-12T14:20:00.654Z,2.35
2023-04-12T14:22:28.133Z,1.90
2023-04-12T14:24:55.276Z,1.98
2023-04-12T14:27:22.541Z,2.10
2023-04-12T14:29:49.621Z,2.88
2023-04-12T14:32:17.961Z,2.00
2023-04-12T14:34:45.017Z,2.83
2023-04-12T14:37:11.955Z,2.70
2023-04-12T14:39:38.761Z,2.25
2023-04-12T14:42:05.907Z,2.40
2023-04-12T14:44:32.789Z,2.35
2023-04-12T14:46:59.558Z,2.35
2023-04-12T14:49:26.417Z,2.08
2023-04-12T14:51:53.217Z,3.55
2023-04-12T14:54:20.778Z,2.20
2023-04-12T14:56:53.484Z,2.30
2023-04-12T14:59:22.560Z,2.47
2023-04-12T15:01:49.511Z,2.72
2023-04-12T15:04:16.713Z,2.78
2023-04-12T15:06:45.079Z,2.38
2023-04-12T15:09:14.077Z,2.97
2023-04-12T15:11:46.303Z,2.00
2023-04-12T15:14:19.911Z,3.40
2023-04-12T15:16:49.225Z,4.22
2023-04-12T15:19:21.134Z,2.72
2023-04-12T15:21:54.991Z,3.75
2023-04-12T15:24:22.566Z,2.03
2023-04-12T15:26:51.585Z,2.33
2023-04-12T15:29:19.988Z,2.40
2023-04-12T15:31:49.104Z,2.30
2023-04-12T15:34:16.104Z,2.90
2023-04-12T15:36:46.001Z,2.28
2023-04-12T15:39:14.846Z,2.50
2023-04-12T15:41:42.986Z,2.00
2023-04-12T15:44:13.341Z,2.17
2023-04-12T15:46:41.857Z,2.30
2023-04-12T15:49:09.150Z,2.40
2023-04-12T15:51:36.198Z,2.17
2023-04-12T15:54:05.472Z,1.88
2023-04-12T15:56:32.659Z,2.88
2023-04-12T15:59:01.355Z,2.10
2023-04-12T16:01:28.621Z,2.30
2023-04-12T16:03:55.745Z,2.47
2023-04-12T16:06:23.319Z,2.38
2023-04-12T16:08:51.713Z,3.08
2023-04-12T16:11:20.225Z,2.28
2023-04-12T16:13:48.639Z,3.17
2023-04-12T16:16:17.751Z,3.65
2023-04-12T16:18:45.735Z,2.55
2023-04-12T16:21:16.813Z,3.38
2023-04-12T16:23:44.495Z,2.55
2023-04-12T16:26:12.390Z,2.17
2023-04-12T16:28:42.902Z,2.47
2023-04-12T16:31:10.496Z,2.15
2023-04-12T16:33:37.647Z,2.78
2023-04-12T16:36:04.610Z,2.30
2023-04-12T16:38:32.193Z,2.42
2023-04-12T16:40:58.892Z,2.40
2023-04-12T16:43:25.974Z,2.10
2023-04-12T16:45:52.638Z,2.60
2023-04-12T16:48:22.589Z,2.80
2023-04-12T16:50:49.550Z,2.92
2023-04-12T16:53:16.960Z,2.05
2023-04-12T16:55:47.329Z,2.13
2023-04-12T16:58:15.602Z,2.70
2023-04-12T17:00:46.276Z,2.65
2023-04-12T17:05:42.828Z,2.08
2023-04-12T17:08:09.848Z,2.92
2023-04-12T17:10:37.282Z,2.55
2023-04-12T17:13:04.651Z,2.80
2023-04-12T17:15:31.575Z,3.00
2023-04-12T17:18:06.802Z,2.90
2023-04-12T17:20:34.347Z,3.58
2023-04-12T17:23:01.547Z,3.25
2023-04-12T17:25:31.166Z,4.13
2023-04-12T17:27:59.868Z,2.90
2023-04-12T17:30:27.357Z,3.08
2023-04-12T17:32:54.430Z,2.67
2023-04-12T17:35:21.356Z,2.92
2023-04-12T17:37:48.444Z,3.10
2023-04-12T17:40:15.546Z,4.18
2023-04-12T17:42:43.606Z,4.30
2023-04-12T17:45:12.669Z,4.78
2023-04-12T17:47:42.922Z,5.18
2023-04-12T17:50:11.280Z,5.88
2023-04-12T17:52:38.587Z,6.20
2023-04-12T17:55:07.620Z,6.45
2023-04-12T17:57:34.787Z,13.93
2023-04-12T18:00:01.903Z,16.75
2023-04-12T18:02:40.152Z,23.90
2023-04-12T18:05:07.733Z,13.55
2023-04-12T18:07:36.030Z,7.40
2023-04-12T18:10:03.269Z,10.32
2023-04-12T18:12:30.328Z,10.57
2023-04-12T18:14:57.457Z,9.93
2023-04-12T18:17:26.430Z,11.75
2023-04-12T18:19:54.333Z,11.82
2023-04-12T18:22:21.775Z,10.05
2023-04-12T18:24:48.687Z,12.65
2023-04-12T18:27:15.792Z,11.73
2023-04-12T18:29:42.652Z,8.68
2023-04-12T18:32:09.569Z,11.20
2023-04-12T18:34:36.918Z,12.57
2023-04-12T18:37:06.105Z,10.23
2023-04-12T18:39:35.141Z,11.43
2023-04-12T18:42:03.659Z,12.15
2023-04-12T18:44:31.487Z,10.65
2023-04-12T18:46:59.373Z,11.30
2023-04-12T18:49:26.591Z,6.90
2023-04-12T18:51:58.319Z,5.97
2023-04-12T18:54:28.000Z,7.95
2023-04-12T18:56:55.157Z,7.22
2023-04-12T18:59:22.389Z,5.90
2023-04-12T19:01:49.568Z,5.85
2023-04-12T19:04:16.916Z,7.47
2023-04-12T19:06:45.090Z,8.43
2023-04-12T19:09:13.621Z,7.57
2023-04-12T19:11:40.635Z,7.15
2023-04-12T19:14:10.887Z,6.60
2023-04-12T19:16:38.738Z,7.60
2023-04-12T19:19:05.948Z,6.30
2023-04-12T19:21:34.270Z,6.53
2023-04-12T19:24:01.571Z,6.85
2023-04-12T19:26:30.356Z,8.52
2023-04-12T19:28:59.144Z,7.03
2023-04-12T19:31:26.571Z,7.75
2023-04-12T19:33:57.394Z,7.63
2023-04-12T19:36:24.985Z,10.00
2023-04-12T19:38:53.956Z,10.52
2023-04-12T19:41:21.169Z,8.40
2023-04-12T19:43:48.262Z,6.70
2023-04-12T19:46:17.575Z,6.00
2023-04-12T19:48:45.645Z,5.65
2023-04-12T19:51:13.493Z,7.10
2023-04-12T19:53:42.076Z,7.32
2023-04-12T19:56:13.038Z,7.38
2023-04-12T19:58:41.798Z,5.80
2023-04-12T20:01:10.013Z,4.10
2023-04-12T20:03:40.014Z,3.35
2023-04-12T20:06:07.148Z,4.13
2023-04-12T20:08:37.452Z,3.95
2023-04-12T20:11:05.132Z,4.07
2023-04-12T20:13:32.831Z,4.93
2023-04-12T20:16:01.492Z,6.22
2023-04-12T20:18:30.552Z,5.72
2023-04-12T20:21:00.914Z,6.78
2023-04-12T20:23:28.309Z,5.97
2023-04-12T20:25:56.600Z,6.15
2023-04-12T20:28:25.977Z,5.70
2023-04-12T20:30:54.090Z,5.60
2023-04-12T20:33:22.033Z,6.28
2023-04-12T20:35:52.691Z,4.65
2023-04-12T20:38:21.068Z,4.57
2023-04-12T20:40:48.486Z,4.47
2023-04-12T20:43:16.093Z,4.25
2023-04-12T20:45:43.547Z,4.15
2023-04-12T20:48:11.906Z,4.95
2023-04-12T20:50:41.526Z,5.95
2023-04-12T20:53:16.063Z,5.75
2023-04-12T20:55:44.891Z,6.10
2023-04-12T20:58:16.565Z,5.40
2023-04-12T21:00:43.575Z,4.95
2023-04-12T21:03:12.545Z,4.60
2023-04-12T21:05:40.751Z,6.68
2023-04-12T21:08:07.767Z,6.78
2023-04-12T21:10:34.560Z,8.68
2023-04-12T21:13:03.074Z,9.07
2023-04-12T21:15:30.247Z,8.75
2023-04-12T21:17:57.794Z,9.75
2023-04-12T21:20:25.514Z,8.65
2023-04-12T21:22:52.425Z,9.95
2023-04-12T21:25:19.945Z,11.70
2023-04-12T21:27:47.738Z,11.88
2023-04-12T21:30:15.977Z,10.07
2023-04-12T21:32:44.040Z,11.00
2023-04-12T21:35:13.824Z,11.10
2023-04-12T21:37:41.095Z,12.93
2023-04-12T21:40:12.891Z,11.10
2023-04-12T21:42:43.274Z,11.70
2023-04-12T21:45:11.036Z,13.63
2023-04-12T21:47:40.726Z,11.73
2023-04-12T21:50:09.275Z,10.45
2023-04-12T21:52:36.541Z,8.77
2023-04-12T21:55:07.090Z,7.95
2023-04-12T21:57:35.041Z,8.45
2023-04-12T22:00:04.565Z,6.63
2023-04-12T22:02:38.857Z,7.05
2023-04-12T22:05:07.029Z,7.75
2023-04-12T22:07:33.937Z,7.72
2023-04-12T22:10:02.109Z,7.28
2023-04-12T22:16:28.979Z,6.45
2023-04-12T22:18:55.939Z,5.00
2023-04-12T22:21:22.884Z,4.50
2023-04-12T22:23:50.540Z,3.88
2023-04-12T22:26:17.228Z,3.90
2023-04-12T22:28:44.433Z,3.80
2023-04-12T22:35:10.966Z,3.10
2023-04-12T22:37:39.110Z,3.03
2023-04-12T22:40:11.431Z,3.20
2023-04-12T22:42:38.748Z,3.55
2023-04-12T22:45:07.748Z,3.40
2023-04-12T22:47:34.578Z,3.58
2023-04-12T22:50:02.906Z,3.72
2023-04-12T22:52:33.682Z,4.13
2023-04-12T22:57:27.524Z,3.58
2023-04-12T22:59:54.280Z,4.85
2023-04-12T23:02:21.276Z,3.78
2023-04-12T23:04:49.297Z,4.00
2023-04-12T23:07:16.574Z,3.42
2023-04-12T23:09:45.257Z,3.45
2023-04-12T23:12:12.734Z,3.17
2023-04-12T23:14:40.024Z,3.63
2023-04-12T23:17:07.422Z,3.50
2023-04-12T23:23:34.655Z,3.00
2023-04-12T23:26:01.422Z,4.05
2023-04-12T23:28:28.598Z,2.90
2023-04-12T23:30:57.785Z,2.80
2023-04-12T23:33:25.265Z,2.80
2023-04-12T23:35:52.911Z,3.88
2023-04-12T23:38:24.464Z,2.75
2023-04-12T23:40:54.211Z,2.20
2023-04-12T23:43:22.918Z,2.63
2023-04-12T23:45:49.736Z,2.53
2023-04-12T23:48:16.712Z,2.38
2023-04-12T23:50:47.095Z,3.60
2023-04-12T23:53:14.883Z,2.55
2023-04-12T23:55:42.835Z,2.70
2023-04-12T23:58:10.424Z,2.85
